sensor_id;sensor_type;location;lat;lon;timestamp;P1;durP1;ratioP1;P2;durP2;ratioP2
72085;SDS011;64750;52.134;5.424;2023-08-21T00:00:31;3.75;;;1.63;;
72085;SDS011;64750;52.134;5.424;2023-08-21T00:02:58;2.33;;;1.38;;
72085;SDS011;64750;52.134;5.424;2023-08-21T00:05:24;3.00;;;1.40;;
72085;SDS011;64750;52.134;5.424;2023-08-21T00:07:51;4.70;;;1.10;;
72085;SDS011;64750;52.134;5.424;2023-08-21T00:10:17;1.52;;;1.00;;
72085;SDS011;64750;52.134;5.424;2023-08-21T00:12:44;3.33;;;1.38;;
72085;SDS011;64750;52.134;5.424;2023-08-21T00:15:10;4.05;;;1.30;;
72085;SDS011;64750;52.134;5.424;2023-08-21T00:17:37;3.97;;;1.60;;
72085;SDS011;64750;52.134;5.424;2023-08-21T00:20:03;2.80;;;1.50;;
72085;SDS011;64750;52.134;5.424;2023-08-21T00:22:31;3.03;;;1.75;;
72085;SDS011;64750;52.134;5.424;2023-08-21T00:24:57;3.63;;;1.40;;
72085;SDS011;64750;52.134;5.424;2023-08-21T00:27:24;2.35;;;1.40;;
72085;SDS011;64750;52.134;5.424;2023-08-21T00:29:50;6.65;;;1.67;;
72085;SDS011;64750;52.134;5.424;2023-08-21T00:32:17;3.37;;;1.30;;
72085;SDS011;64750;52.134;5.424;2023-08-21T00:34:43;4.45;;;1.60;;
72085;SDS011;64750;52.134;5.424;2023-08-21T00:37:10;5.60;;;1.98;;
72085;SDS011;64750;52.134;5.424;2023-08-21T00:39:37;2.88;;;1.55;;
72085;SDS011;64750;52.134;5.424;2023-08-21T00:42:03;2.83;;;1.60;;
72085;SDS011;64750;52.134;5.424;2023-08-21T00:44:30;2.97;;;1.80;;
72085;SDS011;64750;52.134;5.424;2023-08-21T00:46:56;4.55;;;1.73;;
72085;SDS011;64750;52.134;5.424;2023-08-21T00:49:23;2.17;;;1.38;;
72085;SDS011;64750;52.134;5.424;2023-08-21T00:51:49;1.77;;;1.20;;
72085;SDS011;64750;52.134;5.424;2023-08-21T00:54:17;2.67;;;1.50;;
72085;SDS011;64750;52.134;5.424;2023-08-21T00:56:45;3.73;;;1.37;;
72085;SDS011;64750;52.134;5.424;2023-08-21T00:59:13;2.35;;;1.30;;
72085;SDS011;64750;52.134;5.424;2023-08-21T01:01:40;1.65;;;1.20;;
72085;SDS011;64750;52.134;5.424;2023-08-21T01:04:07;3.17;;;1.42;;
72085;SDS011;64750;52.134;5.424;2023-08-21T01:06:34;2.10;;;1.27;;
72085;SDS011;64750;52.134;5.424;2023-08-21T01:09:17;2.77;;;1.27;;
72085;SDS011;64750;52.134;5.424;2023-08-21T01:14:43;5.03;;;1.10;;
72085;SDS011;64750;52.134;5.424;2023-08-21T01:17:19;1.90;;;1.40;;
72085;SDS011;64750;52.134;5.424;2023-08-21T01:19:49;3.75;;;1.30;;
72085;SDS011;64750;52.134;5.424;2023-08-21T01:22:16;4.17;;;1.13;;
72085;SDS011;64750;52.134;5.424;2023-08-21T01:24:42;2.25;;;1.25;;
72085;SDS011;64750;52.134;5.424;2023-08-21T01:27:10;3.97;;;1.38;;
72085;SDS011;64750;52.134;5.424;2023-08-21T01:29:38;2.25;;;1.20;;
72085;SDS011;64750;52.134;5.424;2023-08-21T01:32:06;1.88;;;1.10;;
72085;SDS011;64750;52.134;5.424;2023-08-21T01:34:39;2.30;;;1.13;;
72085;SDS011;64750;52.134;5.424;2023-08-21T01:37:07;2.10;;;1.20;;
72085;SDS011;64750;52.134;5.424;2023-08-21T01:39:34;1.40;;;0.90;;
72085;SDS011;64750;52.134;5.424;2023-08-21T01:42:01;1.55;;;1.42;;
72085;SDS011;64750;52.134;5.424;2023-08-21T01:44:31;3.92;;;1.50;;
72085;SDS011;64750;52.134;5.424;2023-08-21T01:46:57;4.47;;;1.20;;
72085;SDS011;64750;52.134;5.424;2023-08-21T01:49:24;3.17;;;1.30;;
72085;SDS011;64750;52.134;5.424;2023-08-21T01:51:50;6.63;;;1.67;;
72085;SDS011;64750;52.134;5.424;2023-08-21T01:54:17;2.25;;;1.63;;
72085;SDS011;64750;52.134;5.424;2023-08-21T01:56:43;3.97;;;1.40;;
72085;SDS011;64750;52.134;5.424;2023-08-21T01:59:09;2.77;;;1.17;;
72085;SDS011;64750;52.134;5.424;2023-08-21T02:01:36;1.85;;;1.13;;
72085;SDS011;64750;52.134;5.424;2023-08-21T02:04:02;7.15;;;1.45;;
72085;SDS011;64750;52.134;5.424;2023-08-21T02:06:29;1.77;;;1.48;;
72085;SDS011;64750;52.134;5.424;2023-08-21T02:08:55;3.15;;;1.50;;
72085;SDS011;64750;52.134;5.424;2023-08-21T02:11:22;3.73;;;1.23;;
72085;SDS011;64750;52.134;5.424;2023-08-21T02:13:48;2.28;;;1.50;;
72085;SDS011;64750;52.134;5.424;2023-08-21T02:16:15;3.90;;;1.65;;
72085;SDS011;64750;52.134;5.424;2023-08-21T02:18:41;4.13;;;1.58;;
72085;SDS011;64750;52.134;5.424;2023-08-21T02:21:08;4.35;;;1.83;;
72085;SDS011;64750;52.134;5.424;2023-08-21T02:23:34;8.97;;;1.83;;
72085;SDS011;64750;52.134;5.424;2023-08-21T02:26:01;3.10;;;1.88;;
72085;SDS011;64750;52.134;5.424;2023-08-21T02:28:27;2.67;;;1.17;;
72085;SDS011;64750;52.134;5.424;2023-08-21T02:30:54;2.80;;;1.50;;
72085;SDS011;64750;52.134;5.424;2023-08-21T02:33:20;7.10;;;2.00;;
72085;SDS011;64750;52.134;5.424;2023-08-21T02:35:47;4.00;;;2.60;;
72085;SDS011;64750;52.134;5.424;2023-08-21T02:38:13;6.15;;;1.90;;
72085;SDS011;64750;52.134;5.424;2023-08-21T02:40:40;3.45;;;1.67;;
72085;SDS011;64750;52.134;5.424;2023-08-21T02:43:06;2.63;;;1.55;;
72085;SDS011;64750;52.134;5.424;2023-08-21T02:45:33;3.35;;;1.80;;
72085;SDS011;64750;52.134;5.424;2023-08-21T02:47:59;2.87;;;1.67;;
72085;SDS011;64750;52.134;5.424;2023-08-21T02:50:26;5.18;;;2.05;;
72085;SDS011;64750;52.134;5.424;2023-08-21T02:52:52;3.78;;;2.13;;
72085;SDS011;64750;52.134;5.424;2023-08-21T02:55:18;6.55;;;2.00;;
72085;SDS011;64750;52.134;5.424;2023-08-21T02:57:46;5.53;;;1.90;;
72085;SDS011;64750;52.134;5.424;2023-08-21T03:00:13;4.17;;;1.90;;
72085;SDS011;64750;52.134;5.424;2023-08-21T03:02:39;3.05;;;1.80;;
72085;SDS011;64750;52.134;5.424;2023-08-21T03:05:10;3.42;;;1.45;;
72085;SDS011;64750;52.134;5.424;2023-08-21T03:07:37;4.43;;;2.22;;
72085;SDS011;64750;52.134;5.424;2023-08-21T03:10:05;2.53;;;1.83;;
72085;SDS011;64750;52.134;5.424;2023-08-21T03:12:32;3.50;;;1.80;;
72085;SDS011;64750;52.134;5.424;2023-08-21T03:14:58;2.88;;;1.83;;
72085;SDS011;64750;52.134;5.424;2023-08-21T03:17:25;5.00;;;2.05;;
72085;SDS011;64750;52.134;5.424;2023-08-21T03:19:51;3.58;;;1.70;;
72085;SDS011;64750;52.134;5.424;2023-08-21T03:22:18;3.25;;;1.55;;
72085;SDS011;64750;52.134;5.424;2023-08-21T03:24:44;5.13;;;1.97;;
72085;SDS011;64750;52.134;5.424;2023-08-21T03:27:11;4.10;;;2.22;;
72085;SDS011;64750;52.134;5.424;2023-08-21T03:29:37;4.82;;;1.50;;
72085;SDS011;64750;52.134;5.424;2023-08-21T03:32:04;4.70;;;1.73;;
72085;SDS011;64750;52.134;5.424;2023-08-21T03:34:30;2.65;;;1.52;;
72085;SDS011;64750;52.134;5.424;2023-08-21T03:36:57;1.90;;;1.70;;
72085;SDS011;64750;52.134;5.424;2023-08-21T03:39:23;2.85;;;1.98;;
72085;SDS011;64750;52.134;5.424;2023-08-21T03:41:50;4.07;;;1.90;;
72085;SDS011;64750;52.134;5.424;2023-08-21T03:44:16;4.25;;;2.00;;
72085;SDS011;64750;52.134;5.424;2023-08-21T03:46:42;2.65;;;1.92;;
72085;SDS011;64750;52.134;5.424;2023-08-21T03:49:09;5.00;;;2.20;;
72085;SDS011;64750;52.134;5.424;2023-08-21T03:51:35;3.15;;;2.00;;
72085;SDS011;64750;52.134;5.424;2023-08-21T03:54:02;2.40;;;1.70;;
72085;SDS011;64750;52.134;5.424;2023-08-21T03:56:29;6.95;;;1.73;;
72085;SDS011;64750;52.134;5.424;2023-08-21T03:58:55;3.00;;;1.85;;
72085;SDS011;64750;52.134;5.424;2023-08-21T04:01:22;3.90;;;1.53;;
72085;SDS011;64750;52.134;5.424;2023-08-21T04:03:48;3.58;;;1.60;;
72085;SDS011;64750;52.134;5.424;2023-08-21T04:06:15;4.13;;;1.60;;
72085;SDS011;64750;52.134;5.424;2023-08-21T04:08:41;6.05;;;1.50;;
72085;SDS011;64750;52.134;5.424;2023-08-21T04:11:08;4.88;;;1.80;;
72085;SDS011;64750;52.134;5.424;2023-08-21T04:13:35;4.13;;;1.60;;
72085;SDS011;64750;52.134;5.424;2023-08-21T04:16:01;6.47;;;1.85;;
72085;SDS011;64750;52.134;5.424;2023-08-21T04:18:28;5.65;;;1.67;;
72085;SDS011;64750;52.134;5.424;2023-08-21T04:21:07;7.70;;;1.50;;
72085;SDS011;64750;52.134;5.424;2023-08-21T04:23:36;3.50;;;1.58;;
72085;SDS011;64750;52.134;5.424;2023-08-21T04:26:04;2.80;;;1.30;;
72085;SDS011;64750;52.134;5.424;2023-08-21T04:28:31;2.50;;;1.58;;
72085;SDS011;64750;52.134;5.424;2023-08-21T04:30:58;4.70;;;1.67;;
72085;SDS011;64750;52.134;5.424;2023-08-21T04:33:25;2.92;;;1.35;;
72085;SDS011;64750;52.134;5.424;2023-08-21T04:35:54;6.10;;;1.52;;
72085;SDS011;64750;52.134;5.424;2023-08-21T04:38:20;5.43;;;2.10;;
72085;SDS011;64750;52.134;5.424;2023-08-21T04:40:47;2.65;;;1.58;;
72085;SDS011;64750;52.134;5.424;2023-08-21T04:43:13;3.15;;;1.85;;
72085;SDS011;64750;52.134;5.424;2023-08-21T04:45:50;2.83;;;1.50;;
72085;SDS011;64750;52.134;5.424;2023-08-21T04:48:19;1.88;;;1.27;;
72085;SDS011;64750;52.134;5.424;2023-08-21T04:50:46;4.77;;;1.30;;
72085;SDS011;64750;52.134;5.424;2023-08-21T04:53:13;2.22;;;1.35;;
72085;SDS011;64750;52.134;5.424;2023-08-21T04:55:40;2.85;;;1.52;;
72085;SDS011;64750;52.134;5.424;2023-08-21T04:58:08;1.88;;;1.23;;
72085;SDS011;64750;52.134;5.424;2023-08-21T05:00:35;2.10;;;1.25;;
72085;SDS011;64750;52.134;5.424;2023-08-21T05:03:02;1.83;;;1.30;;
72085;SDS011;64750;52.134;5.424;2023-08-21T05:05:29;2.53;;;1.25;;
72085;SDS011;64750;52.134;5.424;2023-08-21T05:07:55;2.53;;;1.38;;
72085;SDS011;64750;52.134;5.424;2023-08-21T05:10:21;3.33;;;1.55;;
72085;SDS011;64750;52.134;5.424;2023-08-21T05:12:48;6.10;;;1.92;;
72085;SDS011;64750;52.134;5.424;2023-08-21T05:15:14;2.10;;;1.50;;
72085;SDS011;64750;52.134;5.424;2023-08-21T05:17:41;3.33;;;1.45;;
72085;SDS011;64750;52.134;5.424;2023-08-21T05:20:08;1.77;;;1.60;;
72085;SDS011;64750;52.134;5.424;2023-08-21T05:22:34;2.20;;;1.45;;
72085;SDS011;64750;52.134;5.424;2023-08-21T05:25:01;5.80;;;1.48;;
72085;SDS011;64750;52.134;5.424;2023-08-21T05:27:28;2.97;;;1.57;;
72085;SDS011;64750;52.134;5.424;2023-08-21T05:29:54;5.32;;;2.00;;
72085;SDS011;64750;52.134;5.424;2023-08-21T05:32:21;2.80;;;1.90;;
72085;SDS011;64750;52.134;5.424;2023-08-21T05:34:47;4.63;;;2.42;;
72085;SDS011;64750;52.134;5.424;2023-08-21T05:37:14;5.88;;;2.63;;
72085;SDS011;64750;52.134;5.424;2023-08-21T05:39:40;3.17;;;2.20;;
72085;SDS011;64750;52.134;5.424;2023-08-21T05:42:07;4.32;;;2.88;;
72085;SDS011;64750;52.134;5.424;2023-08-21T05:44:33;3.53;;;3.20;;
72085;SDS011;64750;52.134;5.424;2023-08-21T05:47:00;5.55;;;3.10;;
72085;SDS011;64750;52.134;5.424;2023-08-21T05:49:26;5.40;;;2.92;;
72085;SDS011;64750;52.134;5.424;2023-08-21T05:51:53;3.97;;;2.77;;
72085;SDS011;64750;52.134;5.424;2023-08-21T05:54:19;4.93;;;3.30;;
72085;SDS011;64750;52.134;5.424;2023-08-21T05:56:46;9.55;;;3.45;;
72085;SDS011;64750;52.134;5.424;2023-08-21T05:59:12;4.50;;;3.13;;
72085;SDS011;64750;52.134;5.424;2023-08-21T06:01:53;3.35;;;2.83;;
72085;SDS011;64750;52.134;5.424;2023-08-21T06:04:19;4.13;;;2.83;;
72085;SDS011;64750;52.134;5.424;2023-08-21T06:06:46;6.60;;;3.20;;
72085;SDS011;64750;52.134;5.424;2023-08-21T06:09:12;3.83;;;2.83;;
72085;SDS011;64750;52.134;5.424;2023-08-21T06:11:39;5.03;;;3.50;;
72085;SDS011;64750;52.134;5.424;2023-08-21T06:14:05;4.47;;;3.08;;
72085;SDS011;64750;52.134;5.424;2023-08-21T06:16:31;3.93;;;3.23;;
72085;SDS011;64750;52.134;5.424;2023-08-21T06:18:58;5.53;;;2.67;;
72085;SDS011;64750;52.134;5.424;2023-08-21T06:21:25;2.97;;;2.70;;
72085;SDS011;64750;52.134;5.424;2023-08-21T06:23:51;2.08;;;1.92;;
72085;SDS011;64750;52.134;5.424;2023-08-21T06:26:17;5.55;;;2.63;;
72085;SDS011;64750;52.134;5.424;2023-08-21T06:28:44;6.83;;;2.77;;
72085;SDS011;64750;52.134;5.424;2023-08-21T06:31:10;4.68;;;2.72;;
72085;SDS011;64750;52.134;5.424;2023-08-21T06:33:37;2.90;;;2.08;;
72085;SDS011;64750;52.134;5.424;2023-08-21T06:36:03;8.18;;;2.33;;
72085;SDS011;64750;52.134;5.424;2023-08-21T06:38:30;3.72;;;2.25;;
72085;SDS011;64750;52.134;5.424;2023-08-21T06:40:56;5.27;;;2.33;;
72085;SDS011;64750;52.134;5.424;2023-08-21T06:43:22;5.60;;;2.00;;
72085;SDS011;64750;52.134;5.424;2023-08-21T06:45:49;3.58;;;1.85;;
72085;SDS011;64750;52.134;5.424;2023-08-21T06:48:15;6.15;;;1.77;;
72085;SDS011;64750;52.134;5.424;2023-08-21T06:50:42;4.72;;;1.63;;
72085;SDS011;64750;52.134;5.424;2023-08-21T06:53:08;4.87;;;1.70;;
72085;SDS011;64750;52.134;5.424;2023-08-21T06:55:35;5.40;;;2.42;;
72085;SDS011;64750;52.134;5.424;2023-08-21T06:58:01;5.82;;;2.72;;
72085;SDS011;64750;52.134;5.424;2023-08-21T07:00:28;5.30;;;1.88;;
72085;SDS011;64750;52.134;5.424;2023-08-21T07:02:54;8.75;;;2.10;;
72085;SDS011;64750;52.134;5.424;2023-08-21T07:05:21;3.27;;;1.87;;
72085;SDS011;64750;52.134;5.424;2023-08-21T07:07:47;4.85;;;2.25;;
72085;SDS011;64750;52.134;5.424;2023-08-21T07:10:14;7.50;;;2.53;;
72085;SDS011;64750;52.134;5.424;2023-08-21T07:12:40;3.72;;;1.88;;
72085;SDS011;64750;52.134;5.424;2023-08-21T07:15:07;2.67;;;1.40;;
72085;SDS011;64750;52.134;5.424;2023-08-21T07:17:34;3.70;;;1.70;;
72085;SDS011;64750;52.134;5.424;2023-08-21T07:20:00;3.13;;;1.80;;
72085;SDS011;64750;52.134;5.424;2023-08-21T07:22:27;3.45;;;1.75;;
72085;SDS011;64750;52.134;5.424;2023-08-21T07:24:55;7.38;;;1.70;;
72085;SDS011;64750;52.134;5.424;2023-08-21T07:27:21;3.83;;;1.67;;
72085;SDS011;64750;52.134;5.424;2023-08-21T07:29:48;5.83;;;1.60;;
72085;SDS011;64750;52.134;5.424;2023-08-21T07:32:14;5.63;;;1.58;;
72085;SDS011;64750;52.134;5.424;2023-08-21T07:34:41;3.42;;;1.33;;
72085;SDS011;64750;52.134;5.424;2023-08-21T07:37:08;5.68;;;1.17;;
72085;SDS011;64750;52.134;5.424;2023-08-21T07:39:35;3.22;;;1.27;;
72085;SDS011;64750;52.134;5.424;2023-08-21T07:42:01;6.40;;;1.13;;
72085;SDS011;64750;52.134;5.424;2023-08-21T07:44:28;3.17;;;1.17;;
72085;SDS011;64750;52.134;5.424;2023-08-21T07:46:55;4.20;;;2.13;;
72085;SDS011;64750;52.134;5.424;2023-08-21T07:49:21;6.40;;;1.25;;
72085;SDS011;64750;52.134;5.424;2023-08-21T07:51:47;4.47;;;1.10;;
72085;SDS011;64750;52.134;5.424;2023-08-21T07:54:14;4.70;;;1.40;;
72085;SDS011;64750;52.134;5.424;2023-08-21T07:56:40;3.72;;;1.00;;
72085;SDS011;64750;52.134;5.424;2023-08-21T07:59:07;1.75;;;1.10;;
72085;SDS011;64750;52.134;5.424;2023-08-21T08:01:34;1.65;;;0.95;;
72085;SDS011;64750;52.134;5.424;2023-08-21T08:04:00;5.28;;;1.10;;
72085;SDS011;64750;52.134;5.424;2023-08-21T08:06:27;4.77;;;1.00;;
72085;SDS011;64750;52.134;5.424;2023-08-21T08:08:53;3.88;;;1.10;;
72085;SDS011;64750;52.134;5.424;2023-08-21T08:11:20;3.58;;;0.85;;
72085;SDS011;64750;52.134;5.424;2023-08-21T08:13:47;3.25;;;1.30;;
72085;SDS011;64750;52.134;5.424;2023-08-21T08:16:13;3.33;;;1.10;;
72085;SDS011;64750;52.134;5.424;2023-08-21T08:18:40;3.63;;;0.70;;
72085;SDS011;64750;52.134;5.424;2023-08-21T08:21:06;2.15;;;0.60;;
72085;SDS011;64750;52.134;5.424;2023-08-21T08:23:33;5.70;;;1.20;;
72085;SDS011;64750;52.134;5.424;2023-08-21T08:25:59;2.45;;;0.70;;
72085;SDS011;64750;52.134;5.424;2023-08-21T08:28:26;4.72;;;1.27;;
72085;SDS011;64750;52.134;5.424;2023-08-21T08:30:52;4.70;;;0.80;;
72085;SDS011;64750;52.134;5.424;2023-08-21T08:33:19;1.48;;;0.82;;
72085;SDS011;64750;52.134;5.424;2023-08-21T08:35:46;2.90;;;0.93;;
72085;SDS011;64750;52.134;5.424;2023-08-21T08:38:13;1.55;;;0.82;;
72085;SDS011;64750;52.134;5.424;2023-08-21T08:40:46;1.30;;;0.65;;
72085;SDS011;64750;52.134;5.424;2023-08-21T08:43:13;5.10;;;1.07;;
72085;SDS011;64750;52.134;5.424;2023-08-21T08:45:41;2.85;;;0.90;;
72085;SDS011;64750;52.134;5.424;2023-08-21T08:48:09;6.20;;;1.10;;
72085;SDS011;64750;52.134;5.424;2023-08-21T08:50:36;3.92;;;0.77;;
72085;SDS011;64750;52.134;5.424;2023-08-21T08:53:04;1.98;;;0.88;;
72085;SDS011;64750;52.134;5.424;2023-08-21T08:55:42;4.87;;;0.73;;
72085;SDS011;64750;52.134;5.424;2023-08-21T08:58:09;6.90;;;1.00;;
72085;SDS011;64750;52.134;5.424;2023-08-21T09:00:36;5.32;;;1.48;;
72085;SDS011;64750;52.134;5.424;2023-08-21T09:03:04;3.40;;;0.70;;
72085;SDS011;64750;52.134;5.424;2023-08-21T09:05:31;4.88;;;1.00;;
72085;SDS011;64750;52.134;5.424;2023-08-21T09:08:09;5.53;;;1.40;;
72085;SDS011;64750;52.134;5.424;2023-08-21T09:10:39;2.85;;;0.90;;
72085;SDS011;64750;52.134;5.424;2023-08-21T09:13:13;4.28;;;0.90;;
72085;SDS011;64750;52.134;5.424;2023-08-21T09:15:43;3.08;;;0.80;;
72085;SDS011;64750;52.134;5.424;2023-08-21T09:18:13;3.13;;;0.90;;
72085;SDS011;64750;52.134;5.424;2023-08-21T09:20:41;5.77;;;1.00;;
72085;SDS011;64750;52.134;5.424;2023-08-21T09:23:08;3.80;;;0.80;;
72085;SDS011;64750;52.134;5.424;2023-08-21T09:25:39;3.42;;;1.00;;
72085;SDS011;64750;52.134;5.424;2023-08-21T09:28:06;4.03;;;0.80;;
72085;SDS011;64750;52.134;5.424;2023-08-21T09:30:43;2.67;;;0.88;;
72085;SDS011;64750;52.134;5.424;2023-08-21T09:33:11;2.27;;;0.70;;
72085;SDS011;64750;52.134;5.424;2023-08-21T09:35:38;1.98;;;0.68;;
72085;SDS011;64750;52.134;5.424;2023-08-21T09:38:05;5.55;;;0.90;;
72085;SDS011;64750;52.134;5.424;2023-08-21T09:40:33;2.47;;;0.80;;
72085;SDS011;64750;52.134;5.424;2023-08-21T09:42:59;4.03;;;0.82;;
72085;SDS011;64750;52.134;5.424;2023-08-21T09:45:29;3.20;;;1.30;;
72085;SDS011;64750;52.134;5.424;2023-08-21T09:47:56;2.10;;;0.60;;
72085;SDS011;64750;52.134;5.424;2023-08-21T09:50:24;1.98;;;0.70;;
72085;SDS011;64750;52.134;5.424;2023-08-21T09:52:52;1.85;;;0.77;;
72085;SDS011;64750;52.134;5.424;2023-08-21T09:55:19;2.47;;;0.80;;
72085;SDS011;64750;52.134;5.424;2023-08-21T09:57:48;1.67;;;0.60;;
72085;SDS011;64750;52.134;5.424;2023-08-21T10:00:23;2.35;;;0.80;;
72085;SDS011;64750;52.134;5.424;2023-08-21T10:02:50;2.72;;;0.90;;
72085;SDS011;64750;52.134;5.424;2023-08-21T10:05:17;2.20;;;0.77;;
72085;SDS011;64750;52.134;5.424;2023-08-21T10:07:47;2.42;;;1.00;;
72085;SDS011;64750;52.134;5.424;2023-08-21T10:10:16;3.97;;;0.87;;
72085;SDS011;64750;52.134;5.424;2023-08-21T10:12:43;3.03;;;0.85;;
72085;SDS011;64750;52.134;5.424;2023-08-21T10:15:10;3.08;;;1.20;;
72085;SDS011;64750;52.134;5.424;2023-08-21T10:17:37;3.40;;;1.45;;
72085;SDS011;64750;52.134;5.424;2023-08-21T10:20:07;3.95;;;1.10;;
72085;SDS011;64750;52.134;5.424;2023-08-21T10:22:39;2.23;;;0.87;;
72085;SDS011;64750;52.134;5.424;2023-08-21T10:27:49;2.60;;;1.23;;
72085;SDS011;64750;52.134;5.424;2023-08-21T10:30:27;2.13;;;0.73;;
72085;SDS011;64750;52.134;5.424;2023-08-21T10:32:56;4.13;;;0.85;;
72085;SDS011;64750;52.134;5.424;2023-08-21T10:35:24;5.33;;;1.40;;
72085;SDS011;64750;52.134;5.424;2023-08-21T10:38:08;3.90;;;0.75;;
72085;SDS011;64750;52.134;5.424;2023-08-21T10:40:39;2.88;;;0.75;;
72085;SDS011;64750;52.134;5.424;2023-08-21T10:46:11;1.30;;;0.50;;
72085;SDS011;64750;52.134;5.424;2023-08-21T10:48:39;3.50;;;0.57;;
72085;SDS011;64750;52.134;5.424;2023-08-21T10:51:07;2.95;;;1.10;;
72085;SDS011;64750;52.134;5.424;2023-08-21T10:53:35;2.10;;;0.60;;
72085;SDS011;64750;52.134;5.424;2023-08-21T10:56:02;2.80;;;0.70;;
72085;SDS011;64750;52.134;5.424;2023-08-21T10:58:41;4.60;;;0.82;;
72085;SDS011;64750;52.134;5.424;2023-08-21T11:01:08;0.80;;;0.50;;
72085;SDS011;64750;52.134;5.424;2023-08-21T11:03:38;1.52;;;0.45;;
72085;SDS011;64750;52.134;5.424;2023-08-21T11:06:06;3.42;;;0.50;;
72085;SDS011;64750;52.134;5.424;2023-08-21T11:08:34;3.00;;;0.60;;
72085;SDS011;64750;52.134;5.424;2023-08-21T11:11:02;2.35;;;0.50;;
72085;SDS011;64750;52.134;5.424;2023-08-21T11:13:30;1.03;;;0.50;;
72085;SDS011;64750;52.134;5.424;2023-08-21T11:15:58;2.17;;;0.70;;
72085;SDS011;64750;52.134;5.424;2023-08-21T11:18:35;1.90;;;0.80;;
72085;SDS011;64750;52.134;5.424;2023-08-21T11:21:03;2.25;;;0.73;;
72085;SDS011;64750;52.134;5.424;2023-08-21T11:23:39;1.10;;;0.50;;
72085;SDS011;64750;52.134;5.424;2023-08-21T11:26:09;1.53;;;0.50;;
72085;SDS011;64750;52.134;5.424;2023-08-21T11:28:47;1.38;;;0.50;;
72085;SDS011;64750;52.134;5.424;2023-08-21T11:31:14;1.70;;;0.65;;
72085;SDS011;64750;52.134;5.424;2023-08-21T11:33:42;2.30;;;0.68;;
72085;SDS011;64750;52.134;5.424;2023-08-21T11:36:15;1.88;;;0.60;;
72085;SDS011;64750;52.134;5.424;2023-08-21T11:38:42;1.37;;;0.60;;
72085;SDS011;64750;52.134;5.424;2023-08-21T11:41:08;2.05;;;0.60;;
72085;SDS011;64750;52.134;5.424;2023-08-21T11:43:38;4.47;;;0.60;;
72085;SDS011;64750;52.134;5.424;2023-08-21T11:46:07;3.17;;;0.60;;
72085;SDS011;64750;52.134;5.424;2023-08-21T11:48:36;3.40;;;0.82;;
72085;SDS011;64750;52.134;5.424;2023-08-21T11:51:04;2.40;;;0.90;;
72085;SDS011;64750;52.134;5.424;2023-08-21T11:53:34;1.00;;;0.57;;
72085;SDS011;64750;52.134;5.424;2023-08-21T11:56:02;3.38;;;0.50;;
72085;SDS011;64750;52.134;5.424;2023-08-21T11:58:37;3.35;;;0.70;;
72085;SDS011;64750;52.134;5.424;2023-08-21T12:01:04;1.67;;;0.50;;
72085;SDS011;64750;52.134;5.424;2023-08-21T12:03:39;0.97;;;0.40;;
72085;SDS011;64750;52.134;5.424;2023-08-21T12:06:09;1.67;;;0.47;;
72085;SDS011;64750;52.134;5.424;2023-08-21T12:08:38;1.42;;;0.50;;
72085;SDS011;64750;52.134;5.424;2023-08-21T12:11:05;1.58;;;0.70;;
72085;SDS011;64750;52.134;5.424;2023-08-21T12:13:32;0.85;;;0.50;;
72085;SDS011;64750;52.134;5.424;2023-08-21T12:16:01;1.77;;;0.50;;
72085;SDS011;64750;52.134;5.424;2023-08-21T12:18:28;1.20;;;0.50;;
72085;SDS011;64750;52.134;5.424;2023-08-21T12:20:54;2.05;;;0.60;;
72085;SDS011;64750;52.134;5.424;2023-08-21T12:23:21;2.08;;;0.50;;
72085;SDS011;64750;52.134;5.424;2023-08-21T12:25:47;3.03;;;0.47;;
72085;SDS011;64750;52.134;5.424;2023-08-21T12:28:14;1.63;;;0.60;;
72085;SDS011;64750;52.134;5.424;2023-08-21T12:30:40;2.20;;;0.55;;
72085;SDS011;64750;52.134;5.424;2023-08-21T12:33:07;1.30;;;0.88;;
72085;SDS011;64750;52.134;5.424;2023-08-21T12:35:48;2.28;;;1.00;;
72085;SDS011;64750;52.134;5.424;2023-08-21T12:38:14;1.50;;;0.75;;
72085;SDS011;64750;52.134;5.424;2023-08-21T12:40:41;1.73;;;0.80;;
72085;SDS011;64750;52.134;5.424;2023-08-21T12:43:07;2.33;;;0.50;;
72085;SDS011;64750;52.134;5.424;2023-08-21T12:45:35;1.42;;;1.00;;
72085;SDS011;64750;52.134;5.424;2023-08-21T12:48:02;3.58;;;0.90;;
72085;SDS011;64750;52.134;5.424;2023-08-21T12:50:30;2.88;;;0.70;;
72085;SDS011;64750;52.134;5.424;2023-08-21T12:52:56;2.40;;;1.47;;
72085;SDS011;64750;52.134;5.424;2023-08-21T12:55:23;1.42;;;0.70;;
72085;SDS011;64750;52.134;5.424;2023-08-21T12:57:49;2.17;;;0.93;;
72085;SDS011;64750;52.134;5.424;2023-08-21T13:00:16;2.30;;;1.20;;
72085;SDS011;64750;52.134;5.424;2023-08-21T13:02:43;2.30;;;0.80;;
72085;SDS011;64750;52.134;5.424;2023-08-21T13:05:10;1.40;;;0.70;;
72085;SDS011;64750;52.134;5.424;2023-08-21T13:07:36;3.90;;;0.90;;
72085;SDS011;64750;52.134;5.424;2023-08-21T13:10:03;4.03;;;1.00;;
72085;SDS011;64750;52.134;5.424;2023-08-21T13:12:29;3.50;;;1.05;;
72085;SDS011;64750;52.134;5.424;2023-08-21T13:14:56;1.38;;;0.85;;
72085;SDS011;64750;52.134;5.424;2023-08-21T13:17:23;2.60;;;0.80;;
72085;SDS011;64750;52.134;5.424;2023-08-21T13:19:50;1.38;;;0.68;;
72085;SDS011;64750;52.134;5.424;2023-08-21T13:22:16;2.35;;;0.90;;
72085;SDS011;64750;52.134;5.424;2023-08-21T13:24:43;2.38;;;0.88;;
72085;SDS011;64750;52.134;5.424;2023-08-21T13:27:10;2.30;;;0.80;;
72085;SDS011;64750;52.134;5.424;2023-08-21T13:29:37;2.60;;;0.63;;
72085;SDS011;64750;52.134;5.424;2023-08-21T13:32:04;3.00;;;1.10;;
72085;SDS011;64750;52.134;5.424;2023-08-21T13:34:30;2.45;;;0.80;;
72085;SDS011;64750;52.134;5.424;2023-08-21T13:36:57;1.95;;;0.60;;
72085;SDS011;64750;52.134;5.424;2023-08-21T13:39:23;2.88;;;0.80;;
72085;SDS011;64750;52.134;5.424;2023-08-21T13:41:50;1.97;;;0.77;;
72085;SDS011;64750;52.134;5.424;2023-08-21T13:44:17;2.60;;;0.70;;
72085;SDS011;64750;52.134;5.424;2023-08-21T13:46:45;1.73;;;0.90;;
72085;SDS011;64750;52.134;5.424;2023-08-21T13:49:12;3.08;;;0.95;;
72085;SDS011;64750;52.134;5.424;2023-08-21T13:51:39;2.33;;;0.90;;
72085;SDS011;64750;52.134;5.424;2023-08-21T13:54:06;2.87;;;0.77;;
72085;SDS011;64750;52.134;5.424;2023-08-21T13:56:33;3.25;;;1.10;;
72085;SDS011;64750;52.134;5.424;2023-08-21T13:59:00;1.95;;;0.80;;
72085;SDS011;64750;52.134;5.424;2023-08-21T14:01:26;3.78;;;1.00;;
72085;SDS011;64750;52.134;5.424;2023-08-21T14:03:53;3.90;;;0.60;;
72085;SDS011;64750;52.134;5.424;2023-08-21T14:06:19;2.50;;;0.77;;
72085;SDS011;64750;52.134;5.424;2023-08-21T14:08:46;1.63;;;0.68;;
72085;SDS011;64750;52.134;5.424;2023-08-21T14:11:12;6.53;;;0.75;;
72085;SDS011;64750;52.134;5.424;2023-08-21T14:13:39;3.92;;;0.73;;
72085;SDS011;64750;52.134;5.424;2023-08-21T14:16:05;4.97;;;0.90;;
72085;SDS011;64750;52.134;5.424;2023-08-21T14:18:32;3.10;;;0.80;;
72085;SDS011;64750;52.134;5.424;2023-08-21T14:20:58;3.72;;;0.77;;
72085;SDS011;64750;52.134;5.424;2023-08-21T14:23:25;3.72;;;0.88;;
72085;SDS011;64750;52.134;5.424;2023-08-21T14:25:51;2.13;;;0.70;;
72085;SDS011;64750;52.134;5.424;2023-08-21T14:28:18;1.60;;;0.60;;
72085;SDS011;64750;52.134;5.424;2023-08-21T14:30:45;4.33;;;0.87;;
72085;SDS011;64750;52.134;5.424;2023-08-21T14:33:13;5.05;;;0.60;;
72085;SDS011;64750;52.134;5.424;2023-08-21T14:35:39;2.15;;;0.68;;
72085;SDS011;64750;52.134;5.424;2023-08-21T14:38:06;2.63;;;0.80;;
72085;SDS011;64750;52.134;5.424;2023-08-21T14:40:32;1.63;;;0.60;;
72085;SDS011;64750;52.134;5.424;2023-08-21T14:42:59;2.97;;;0.50;;
72085;SDS011;64750;52.134;5.424;2023-08-21T14:45:26;2.83;;;1.40;;
72085;SDS011;64750;52.134;5.424;2023-08-21T14:47:53;3.22;;;0.60;;
72085;SDS011;64750;52.134;5.424;2023-08-21T14:50:19;2.78;;;0.60;;
72085;SDS011;64750;52.134;5.424;2023-08-21T14:52:46;0.93;;;0.50;;
72085;SDS011;64750;52.134;5.424;2023-08-21T14:55:14;3.40;;;0.90;;
72085;SDS011;64750;52.134;5.424;2023-08-21T14:57:41;2.20;;;0.68;;